createdAt,value
2019-04-16T00:01:08.391Z,14.13
2019-04-16T00:03:40.948Z,15.63
2019-04-16T00:06:18.091Z,14.80
2019-04-16T00:09:03.663Z,14.47
2019-04-16T00:11:37.547Z,14.27
2019-04-16T00:14:10.382Z,14.73
2019-04-16T00:16:41.343Z,14.67
2019-04-16T00:19:07.472Z,14.40
2019-04-16T00:21:38.510Z,15.60
2019-04-16T00:24:09.115Z,14.33
2019-04-16T00:26:35.189Z,15.53
2019-04-16T00:29:04.975Z,13.87
2019-04-16T00:31:34.323Z,15.40
2019-04-16T00:34:01.223Z,14.67
2019-04-16T00:36:28.355Z,14.73
2019-04-16T00:38:56.793Z,15.47
2019-04-16T00:41:24.797Z,14.20
2019-04-16T00:43:52.048Z,15.60
2019-04-16T00:46:20.163Z,14.60
2019-04-16T00:48:59.306Z,13.80
2019-04-16T00:51:26.900Z,15.47
2019-04-16T00:53:55.434Z,15.83
2019-04-16T00:56:29.807Z,16.17
2019-04-16T00:58:57.971Z,14.93
2019-04-16T01:01:30.794Z,14.73
2019-04-16T01:04:00.336Z,15.27
2019-04-16T01:06:37.895Z,14.87
2019-04-16T01:09:07.828Z,15.43
2019-04-16T01:11:33.885Z,15.13
2019-04-16T01:14:02.481Z,14.93
2019-04-16T01:16:30.308Z,14.97
2019-04-16T01:18:58.496Z,14.90
2019-04-16T01:21:24.696Z,14.07
2019-04-16T01:23:51.687Z,15.83
2019-04-16T01:26:26.798Z,16.80
2019-04-16T01:29:02.647Z,13.50
2019-04-16T01:31:47.159Z,14.17
2019-04-16T01:34:20.933Z,15.20
2019-04-16T01:37:08.731Z,14.20
2019-04-16T01:39:41.719Z,13.67
2019-04-16T01:42:07.884Z,15.10
2019-04-16T01:44:36.058Z,15.63
2019-04-16T01:47:04.250Z,17.10
2019-04-16T01:49:33.265Z,15.00
2019-04-16T01:51:59.736Z,15.10
2019-04-16T01:54:25.851Z,14.27
2019-04-16T01:56:53.704Z,14.27
2019-04-16T01:59:21.339Z,14.00
2019-04-16T02:01:50.440Z,13.63
2019-04-16T02:04:20.615Z,15.23
2019-04-16T02:06:48.678Z,14.17
2019-04-16T02:09:23.139Z,14.67
2019-04-16T02:11:50.526Z,14.00
2019-04-16T02:14:21.912Z,13.90
2019-04-16T02:16:45.543Z,15.57
2019-04-16T02:19:11.745Z,14.57
2019-04-16T02:21:39.014Z,14.00
2019-04-16T02:24:18.526Z,14.17
2019-04-16T02:26:55.450Z,14.30
2019-04-16T02:29:23.413Z,14.97
2019-04-16T02:31:51.749Z,13.93
2019-04-16T02:34:23.016Z,13.63
2019-04-16T02:36:50.430Z,16.90
2019-04-16T02:39:17.529Z,14.10
2019-04-16T02:41:43.581Z,14.90
2019-04-16T02:44:16.319Z,14.40
2019-04-16T02:46:41.151Z,14.47
2019-04-16T02:49:15.062Z,14.20
2019-04-16T02:51:43.100Z,15.03
2019-04-16T02:54:19.608Z,14.17
2019-04-16T02:56:59.474Z,15.23
2019-04-16T02:59:30.279Z,13.30
2019-04-16T03:01:59.504Z,14.50
2019-04-16T03:04:28.087Z,13.90
2019-04-16T03:06:54.128Z,13.73
2019-04-16T03:09:20.180Z,16.20
2019-04-16T03:11:48.937Z,12.67
2019-04-16T03:14:14.393Z,15.40
2019-04-16T03:16:42.382Z,13.93
2019-04-16T03:19:19.253Z,14.83
2019-04-16T03:21:44.158Z,14.03
2019-04-16T03:24:16.086Z,13.97
2019-04-16T03:26:47.590Z,13.57
2019-04-16T03:29:14.118Z,13.90
2019-04-16T03:31:43.214Z,13.77
2019-04-16T03:34:09.840Z,14.80
2019-04-16T03:36:39.335Z,14.80
2019-04-16T03:39:13.236Z,13.70
2019-04-16T03:41:41.062Z,14.20
2019-04-16T03:44:09.163Z,14.00
2019-04-16T03:46:35.832Z,14.53
2019-04-16T03:49:06.870Z,13.07
2019-04-16T03:51:43.933Z,14.27
2019-04-16T03:54:18.864Z,13.97
2019-04-16T03:56:50.177Z,14.17
2019-04-16T03:59:18.870Z,13.90
2019-04-16T04:01:46.066Z,14.53
2019-04-16T04:04:22.356Z,14.13
2019-04-16T04:06:49.459Z,14.17
2019-04-16T04:09:22.238Z,13.73
2019-04-16T04:11:49.909Z,14.67
2019-04-16T04:14:23.295Z,14.83
2019-04-16T04:16:50.024Z,14.87
2019-04-16T04:19:18.320Z,13.80
2019-04-16T04:21:46.112Z,13.90
2019-04-16T04:24:22.350Z,13.40
2019-04-16T04:27:00.293Z,13.87
2019-04-16T04:29:38.297Z,13.37
2019-04-16T04:32:04.917Z,13.80
2019-04-16T04:34:31.185Z,15.70
2019-04-16T04:37:00.376Z,14.33
2019-04-16T04:39:27.766Z,14.90
2019-04-16T04:41:56.479Z,14.23
2019-04-16T04:44:29.270Z,13.37
2019-04-16T04:47:05.392Z,14.30
2019-04-16T04:49:32.814Z,13.83
2019-04-16T04:52:08.312Z,14.20
2019-04-16T04:54:46.306Z,14.37
2019-04-16T04:57:12.644Z,16.10
2019-04-16T04:59:44.499Z,13.83
2019-04-16T05:02:13.963Z,14.60
2019-04-16T05:04:49.671Z,14.30
2019-04-16T05:07:18.329Z,14.20
2019-04-16T05:09:47.680Z,14.03
2019-04-16T05:12:18.088Z,14.93
2019-04-16T05:15:03.904Z,15.70
2019-04-16T05:17:39.352Z,13.57
2019-04-16T05:20:15.089Z,14.00
2019-04-16T05:22:39.034Z,13.97
2019-04-16T05:25:08.945Z,14.57
2019-04-16T05:27:40.212Z,15.50
2019-04-16T05:30:20.446Z,13.80
2019-04-16T05:32:45.871Z,13.50
2019-04-16T05:35:47.807Z,14.53
2019-04-16T05:38:20.326Z,14.93
2019-04-16T05:41:12.535Z,15.13
2019-04-16T05:43:34.982Z,14.50
2019-04-16T05:46:05.464Z,13.10
2019-04-16T05:48:33.210Z,15.10
2019-04-16T05:51:01.350Z,14.77
2019-04-16T05:53:30.663Z,13.50
2019-04-16T05:56:09.521Z,14.73
2019-04-16T05:58:36.655Z,13.93
2019-04-16T06:01:05.863Z,14.10
2019-04-16T06:03:40.233Z,13.77
2019-04-16T06:06:06.382Z,16.97
2019-04-16T06:08:32.510Z,14.00
2019-04-16T06:11:03.903Z,16.13
2019-04-16T06:13:44.415Z,14.60
2019-04-16T06:16:14.394Z,13.00
2019-04-16T06:18:55.651Z,15.07
2019-04-16T06:21:25.773Z,14.07
2019-04-16T06:23:53.808Z,14.40
2019-04-16T06:26:28.843Z,14.87
2019-04-16T06:29:01.546Z,14.90
2019-04-16T06:31:48.483Z,14.17
2019-04-16T06:34:26.226Z,14.83
2019-04-16T06:37:06.685Z,17.90
2019-04-16T06:39:42.101Z,15.93
2019-04-16T06:42:28.276Z,16.27
2019-04-16T06:45:01.579Z,15.77
2019-04-16T06:47:41.810Z,16.20
2019-04-16T06:50:32.488Z,15.77
2019-04-16T06:53:06.537Z,15.70
2019-04-16T06:55:44.856Z,15.03
2019-04-16T06:58:27.121Z,14.53
2019-04-16T07:00:57.040Z,14.60
2019-04-16T07:03:28.792Z,16.73
2019-04-16T07:06:03.617Z,14.77
2019-04-16T07:08:50.712Z,14.50
2019-04-16T07:11:22.327Z,16.73
2019-04-16T07:13:50.008Z,13.60
2019-04-16T07:16:27.954Z,14.30
2019-04-16T07:19:01.416Z,14.93
2019-04-16T07:21:30.336Z,16.27
2019-04-16T07:24:09.006Z,15.23
2019-04-16T07:26:38.583Z,15.33
2019-04-16T07:29:24.740Z,15.77
2019-04-16T07:31:57.102Z,17.13
2019-04-16T07:34:32.325Z,16.20
2019-04-16T07:37:16.421Z,16.13
2019-04-16T07:40:08.658Z,15.90
2019-04-16T07:42:52.422Z,15.47
2019-04-16T07:45:37.912Z,16.20
2019-04-16T07:48:16.703Z,16.97
2019-04-16T07:51:11.015Z,15.67
2019-04-16T07:54:02.846Z,16.20
2019-04-16T07:56:40.700Z,15.53
2019-04-16T07:59:14.173Z,15.17
2019-04-16T08:01:47.763Z,17.03
2019-04-16T08:04:28.307Z,15.73
2019-04-16T08:06:47.565Z,15.33
2019-04-16T08:09:16.348Z,15.50
2019-04-16T08:11:44.570Z,15.83
2019-04-16T08:14:14.688Z,16.13
2019-04-16T08:16:48.967Z,15.80
2019-04-16T08:19:16.288Z,15.90
2019-04-16T08:21:48.194Z,16.57
2019-04-16T08:24:17.481Z,16.33
2019-04-16T08:26:47.159Z,16.17
2019-04-16T08:29:19.260Z,15.40
2019-04-16T08:31:47.081Z,16.67
2019-04-16T08:34:17.536Z,15.83
2019-04-16T08:36:51.883Z,15.87
2019-04-16T08:39:18.082Z,14.40
2019-04-16T08:41:45.505Z,15.00
2019-04-16T08:44:12.586Z,18.50
2019-04-16T08:46:41.269Z,15.00
2019-04-16T08:49:08.750Z,16.37
2019-04-16T08:51:37.792Z,15.57
2019-04-16T08:54:09.282Z,18.37
2019-04-16T08:56:43.324Z,16.20
2019-04-16T08:59:12.670Z,16.33
2019-04-16T09:01:40.802Z,16.10
2019-04-16T09:04:09.106Z,16.60
2019-04-16T09:06:36.627Z,17.50
2019-04-16T09:09:28.651Z,15.57
2019-04-16T09:11:57.711Z,15.40
2019-04-16T09:14:30.692Z,16.03
2019-04-16T09:17:14.617Z,16.00
2019-04-16T09:19:49.487Z,16.60
2019-04-16T09:22:17.064Z,16.20
2019-04-16T09:24:48.285Z,15.33
2019-04-16T09:27:28.689Z,17.10
2019-04-16T09:30:02.657Z,15.13
2019-04-16T09:32:30.593Z,16.80
2019-04-16T09:35:19.849Z,17.20
2019-04-16T09:37:56.805Z,17.50
2019-04-16T09:40:42.100Z,15.20
2019-04-16T09:43:18.539Z,16.97
2019-04-16T09:46:09.380Z,17.20
2019-04-16T09:48:28.270Z,15.10
2019-04-16T09:51:02.997Z,18.10
2019-04-16T09:53:33.940Z,17.13
2019-04-16T09:55:59.355Z,17.47
2019-04-16T09:58:27.743Z,16.70
2019-04-16T10:00:56.372Z,16.13
2019-04-16T10:03:38.183Z,22.93
2019-04-16T10:06:08.231Z,16.67
2019-04-16T10:08:35.373Z,17.00
2019-04-16T10:11:07.509Z,17.97
2019-04-16T10:13:37.490Z,16.40
2019-04-16T10:16:05.643Z,15.70
2019-04-16T10:18:35.276Z,18.00
2019-04-16T10:21:03.625Z,16.93
2019-04-16T10:23:55.035Z,15.43
2019-04-16T10:26:30.501Z,15.67
2019-04-16T10:29:01.581Z,14.50
2019-04-16T10:31:37.600Z,15.40
2019-04-16T10:34:07.371Z,15.47
2019-04-16T10:36:38.004Z,15.20
2019-04-16T10:39:21.671Z,15.83
2019-04-16T10:41:56.740Z,14.63
2019-04-16T10:44:36.853Z,15.50
2019-04-16T10:47:22.257Z,19.10
2019-04-16T10:49:58.649Z,14.73
2019-04-16T10:52:55.882Z,15.20
2019-04-16T10:55:39.140Z,15.50
2019-04-16T10:58:25.798Z,17.00
2019-04-16T11:01:10.367Z,14.60
2019-04-16T11:03:41.622Z,15.57
2019-04-16T11:06:20.235Z,15.63
2019-04-16T11:08:56.178Z,16.00
2019-04-16T11:11:22.324Z,14.97
2019-04-16T11:14:00.262Z,14.97
2019-04-16T11:16:24.094Z,15.17
2019-04-16T11:18:55.085Z,13.40
2019-04-16T11:21:23.493Z,13.40
2019-04-16T11:23:49.555Z,14.20
2019-04-16T11:26:16.055Z,12.97
2019-04-16T11:28:42.212Z,12.70
2019-04-16T11:31:13.454Z,13.33
2019-04-16T11:33:41.188Z,12.87
2019-04-16T11:36:19.385Z,12.27
2019-04-16T11:38:44.006Z,13.90
2019-04-16T11:41:22.056Z,14.47
2019-04-16T11:44:14.278Z,12.53
2019-04-16T11:46:30.171Z,15.03
2019-04-16T11:48:57.525Z,13.90
2019-04-16T11:51:29.303Z,12.30
2019-04-16T11:54:00.537Z,11.40
2019-04-16T11:56:30.424Z,11.87
2019-04-16T11:58:59.618Z,12.30
2019-04-16T12:01:40.110Z,11.30
2019-04-16T12:04:23.031Z,12.37
2019-04-16T12:06:57.911Z,11.60
2019-04-16T12:09:37.971Z,13.90
2019-04-16T12:12:17.769Z,12.93
2019-04-16T12:15:03.675Z,13.43
2019-04-16T12:17:49.894Z,13.20
2019-04-16T12:20:18.132Z,13.67
2019-04-16T12:22:50.292Z,14.13
2019-04-16T12:25:35.169Z,12.70
2019-04-16T12:28:12.516Z,14.07
2019-04-16T12:31:01.968Z,12.17
2019-04-16T12:33:34.788Z,13.53
2019-04-16T12:36:23.529Z,13.33
2019-04-16T12:39:19.550Z,12.60
2019-04-16T12:41:48.461Z,13.80
2019-04-16T12:44:17.120Z,14.10
2019-04-16T12:46:46.405Z,13.63
2019-04-16T12:49:17.597Z,12.83
2019-04-16T12:51:49.792Z,13.73
2019-04-16T12:54:38.553Z,14.50
2019-04-16T12:57:24.837Z,13.77
2019-04-16T13:00:07.057Z,13.87
2019-04-16T13:02:44.798Z,13.83
2019-04-16T13:05:20.869Z,14.00
2019-04-16T13:07:51.734Z,13.20
2019-04-16T13:10:20.529Z,13.60
2019-04-16T13:13:05.081Z,13.00
2019-04-16T13:15:47.756Z,12.47
2019-04-16T13:18:25.271Z,11.80
2019-04-16T13:21:03.986Z,12.03
2019-04-16T13:23:43.811Z,12.47
2019-04-16T13:26:29.403Z,11.27
2019-04-16T13:29:03.091Z,12.07
2019-04-16T13:31:29.714Z,12.77
2019-04-16T13:33:56.180Z,11.33
2019-04-16T13:36:31.625Z,12.10
2019-04-16T13:39:18.158Z,13.67
2019-04-16T13:41:47.328Z,13.37
2019-04-16T13:44:19.195Z,13.80
2019-04-16T13:46:48.337Z,15.30
2019-04-16T13:49:33.097Z,14.80
2019-04-16T13:52:05.038Z,16.13
2019-04-16T13:54:52.092Z,17.03
2019-04-16T13:57:21.457Z,15.60
2019-04-16T14:00:04.592Z,13.50
2019-04-16T14:02:54.834Z,14.30
2019-04-16T14:05:22.802Z,14.30
2019-04-16T14:07:51.228Z,16.17
2019-04-16T14:10:23.518Z,14.57
2019-04-16T14:12:52.665Z,14.80
2019-04-16T14:15:32.191Z,15.80
2019-04-16T14:17:59.860Z,15.90
2019-04-16T14:20:30.330Z,14.10
2019-04-16T14:22:58.682Z,15.97
2019-04-16T14:25:25.025Z,14.47
2019-04-16T14:28:09.163Z,14.83
2019-04-16T14:30:39.530Z,14.67
2019-04-16T14:33:09.734Z,15.00
2019-04-16T14:35:47.475Z,13.77
2019-04-16T14:38:28.342Z,13.87
2019-04-16T14:41:03.408Z,14.60
2019-04-16T14:43:39.969Z,13.60
2019-04-16T14:46:10.438Z,13.60
2019-04-16T14:48:39.311Z,12.50
2019-04-16T14:51:07.613Z,12.13
2019-04-16T14:53:42.457Z,12.97
2019-04-16T14:56:13.642Z,14.17
2019-04-16T14:58:58.751Z,12.27
2019-04-16T15:01:28.043Z,14.13
2019-04-16T15:04:00.131Z,15.87
2019-04-16T15:06:49.123Z,16.17
2019-04-16T15:09:35.870Z,14.80
2019-04-16T15:12:23.854Z,12.60
2019-04-16T15:14:53.374Z,16.13
2019-04-16T15:17:41.713Z,15.53
2019-04-16T15:20:12.952Z,15.07
2019-04-16T15:22:57.483Z,14.70
2019-04-16T15:25:25.531Z,15.07
2019-04-16T15:27:56.520Z,15.80
2019-04-16T15:30:54.353Z,13.43
2019-04-16T15:33:35.658Z,13.40
2019-04-16T15:36:08.159Z,14.10
2019-04-16T15:38:54.681Z,12.70
2019-04-16T15:41:32.860Z,13.67
2019-04-16T15:44:12.661Z,14.40
2019-04-16T15:46:57.940Z,14.03
2019-04-16T15:49:28.796Z,13.40
2019-04-16T15:52:15.185Z,15.73
2019-04-16T15:55:03.009Z,13.77
2019-04-16T15:57:33.945Z,20.00
2019-04-16T16:00:23.628Z,23.03
2019-04-16T16:03:06.932Z,15.33
2019-04-16T16:05:47.857Z,15.30
2019-04-16T16:08:22.631Z,14.47
2019-04-16T16:11:09.676Z,16.57
2019-04-16T16:13:35.916Z,14.80
2019-04-16T16:16:17.596Z,15.00
2019-04-16T16:18:48.746Z,15.70
2019-04-16T16:21:19.183Z,14.10
2019-04-16T16:23:45.792Z,13.73
2019-04-16T16:26:13.136Z,18.23
2019-04-16T16:28:51.711Z,45.63
2019-04-16T16:31:21.763Z,15.17
2019-04-16T16:33:48.838Z,14.50
2019-04-16T16:36:25.505Z,15.77
2019-04-16T16:38:51.659Z,15.90
2019-04-16T16:41:27.832Z,15.80
2019-04-16T16:43:58.058Z,14.73
2019-04-16T16:46:32.804Z,14.97
2019-04-16T16:49:02.548Z,15.13
2019-04-16T16:51:30.650Z,17.23
2019-04-16T16:54:04.718Z,15.40
2019-04-16T16:56:46.981Z,16.50
2019-04-16T16:59:31.589Z,14.80
2019-04-16T17:02:14.328Z,17.00
2019-04-16T17:04:49.910Z,15.87
2019-04-16T17:07:30.669Z,16.60
2019-04-16T17:09:56.782Z,16.30
2019-04-16T17:12:23.799Z,16.40
2019-04-16T17:14:51.189Z,19.23
2019-04-16T17:17:17.231Z,16.33
2019-04-16T17:19:44.548Z,17.20
2019-04-16T17:22:14.733Z,17.57
2019-04-16T17:24:42.570Z,17.80
2019-04-16T17:27:12.038Z,16.90
2019-04-16T17:29:46.581Z,17.70
2019-04-16T17:32:20.589Z,16.80
2019-04-16T17:34:47.225Z,17.70
2019-04-16T17:37:14.621Z,18.53
2019-04-16T17:39:45.600Z,29.20
2019-04-16T17:42:15.827Z,17.30
2019-04-16T17:45:00.196Z,18.13
2019-04-16T17:47:33.178Z,16.77
2019-04-16T17:50:16.003Z,17.53
2019-04-16T17:52:44.980Z,17.40
2019-04-16T17:55:29.840Z,17.90
2019-04-16T17:58:03.952Z,17.53
2019-04-16T18:00:52.997Z,16.67
2019-04-16T18:03:37.787Z,16.90
2019-04-16T18:06:12.394Z,16.90
2019-04-16T18:08:58.721Z,16.30
2019-04-16T18:11:28.037Z,17.30
2019-04-16T18:14:06.649Z,16.53
2019-04-16T18:16:41.955Z,16.63
2019-04-16T18:19:27.649Z,17.23
2019-04-16T18:22:06.068Z,16.30
2019-04-16T18:24:43.451Z,15.97
2019-04-16T18:27:21.522Z,15.83
2019-04-16T18:30:06.236Z,14.80
2019-04-16T18:32:45.863Z,14.60
2019-04-16T18:35:23.868Z,16.37
2019-04-16T18:37:54.765Z,16.57
2019-04-16T18:40:26.698Z,17.07
2019-04-16T18:42:55.715Z,15.80
2019-04-16T18:45:29.236Z,16.30
2019-04-16T18:48:12.998Z,12.80
2019-04-16T18:50:35.742Z,12.20
2019-04-16T18:53:12.080Z,10.83
2019-04-16T18:55:40.131Z,11.03
2019-04-16T18:58:08.364Z,10.30
2019-04-16T19:00:37.661Z,11.10
2019-04-16T19:03:04.504Z,9.50
2019-04-16T19:05:32.914Z,9.70
2019-04-16T19:08:16.044Z,8.67
2019-04-16T19:10:43.273Z,8.93
2019-04-16T19:13:15.510Z,8.60
2019-04-16T19:15:46.273Z,8.40
2019-04-16T19:18:19.582Z,8.00
2019-04-16T19:20:51.359Z,8.30
2019-04-16T19:23:21.460Z,6.83
2019-04-16T19:25:56.864Z,6.33
2019-04-16T19:28:26.543Z,5.70
2019-04-16T19:30:53.910Z,5.80
2019-04-16T19:33:22.104Z,5.60
2019-04-16T19:35:51.936Z,5.90
2019-04-16T19:38:21.139Z,6.00
2019-04-16T19:40:50.908Z,5.80
2019-04-16T19:43:18.831Z,5.47
2019-04-16T19:45:53.766Z,5.90
2019-04-16T19:48:35.823Z,5.77
2019-04-16T19:51:08.500Z,6.10
2019-04-16T19:53:37.072Z,5.87
2019-04-16T19:56:09.300Z,6.93
2019-04-16T19:58:39.692Z,6.93
2019-04-16T20:01:12.022Z,7.77
2019-04-16T20:03:37.816Z,6.47
2019-04-16T20:06:14.040Z,5.77
2019-04-16T20:08:49.722Z,6.30
2019-04-16T20:11:23.940Z,5.77
2019-04-16T20:14:02.747Z,6.17
2019-04-16T20:16:35.183Z,5.60
2019-04-16T20:19:02.592Z,5.50
2019-04-16T20:21:40.614Z,5.73
2019-04-16T20:24:08.807Z,5.23
2019-04-16T20:26:48.023Z,5.17
2019-04-16T20:29:22.888Z,5.70
2019-04-16T20:31:53.251Z,5.00
2019-04-16T20:34:20.478Z,5.80
2019-04-16T20:36:52.172Z,4.67
2019-04-16T20:39:23.974Z,4.43
2019-04-16T20:42:01.858Z,4.53
2019-04-16T20:44:27.898Z,4.80
2019-04-16T20:46:58.322Z,5.47
2019-04-16T20:49:34.358Z,5.97
2019-04-16T20:52:02.345Z,5.70
2019-04-16T20:54:29.804Z,4.80
2019-04-16T20:57:00.304Z,4.40
2019-04-16T20:59:29.287Z,4.83
2019-04-16T21:01:55.873Z,4.37
2019-04-16T21:04:27.796Z,4.60
2019-04-16T21:06:55.023Z,4.17
2019-04-16T21:09:21.114Z,4.60
2019-04-16T21:11:52.500Z,4.63
2019-04-16T21:14:18.897Z,5.03
2019-04-16T21:16:45.075Z,4.70
2019-04-16T21:19:23.026Z,4.40
2019-04-16T21:21:41.288Z,4.50
2019-04-16T21:24:13.673Z,4.57
2019-04-16T21:26:42.100Z,5.07
2019-04-16T21:29:15.795Z,4.47
2019-04-16T21:31:45.378Z,4.43
2019-04-16T21:34:24.202Z,4.60
2019-04-16T21:36:48.970Z,5.30
2019-04-16T21:39:18.138Z,5.00
2019-04-16T21:41:46.006Z,4.80
2019-04-16T21:44:13.227Z,5.10
2019-04-16T21:46:44.893Z,4.57
2019-04-16T21:49:12.562Z,4.90
2019-04-16T21:51:41.361Z,4.90
2019-04-16T21:54:18.474Z,4.30
2019-04-16T21:56:45.842Z,5.10
2019-04-16T21:59:14.326Z,5.43
2019-04-16T22:01:42.444Z,5.63
2019-04-16T22:04:14.361Z,5.17
2019-04-16T22:06:42.349Z,4.90
2019-04-16T22:09:14.455Z,5.50
2019-04-16T22:11:44.545Z,4.90
2019-04-16T22:14:13.596Z,5.07
2019-04-16T22:16:47.564Z,5.20
2019-04-16T22:19:14.018Z,5.10
2019-04-16T22:21:48.627Z,5.37
2019-04-16T22:24:14.824Z,5.33
2019-04-16T22:26:46.958Z,5.40
2019-04-16T22:29:19.965Z,5.40
2019-04-16T22:31:48.842Z,5.57
2019-04-16T22:34:18.337Z,5.37
2019-04-16T22:36:46.574Z,5.23
2019-04-16T22:39:24.673Z,4.90
2019-04-16T22:41:59.165Z,5.20
2019-04-16T22:44:34.179Z,5.20
2019-04-16T22:47:02.371Z,4.83
2019-04-16T22:49:28.501Z,4.77
2019-04-16T22:51:58.081Z,4.83
2019-04-16T22:54:25.256Z,5.47
2019-04-16T22:57:06.195Z,4.93
2019-04-16T22:59:32.304Z,4.93
2019-04-16T23:01:59.614Z,4.50
2019-04-16T23:04:27.757Z,4.70
2019-04-16T23:06:57.480Z,5.07
2019-04-16T23:09:27.691Z,4.90
2019-04-16T23:11:57.245Z,4.90
2019-04-16T23:14:23.317Z,4.90
2019-04-16T23:16:51.494Z,5.03
2019-04-16T23:19:22.652Z,5.23
2019-04-16T23:21:48.637Z,4.60
2019-04-16T23:24:15.712Z,4.10
2019-04-16T23:26:41.852Z,4.20
2019-04-16T23:29:08.860Z,4.80
2019-04-16T23:31:36.960Z,4.30
2019-04-16T23:34:09.728Z,4.50
2019-04-16T23:36:37.195Z,4.80
2019-04-16T23:39:10.393Z,4.83
2019-04-16T23:41:40.721Z,4.50
2019-04-16T23:44:22.609Z,4.43
2019-04-16T23:47:00.150Z,4.43
2019-04-16T23:49:42.924Z,3.67
2019-04-16T23:52:12.262Z,4.90
2019-04-16T23:54:56.981Z,4.40
2019-04-16T23:57:25.553Z,4.47
